createdAt,value
2018-11-28T00:00:21.793Z,81.6
2018-11-28T00:01:31.918Z,81.41
2018-11-28T00:02:42.032Z,81.64
2018-11-28T00:03:51.626Z,81.64
2018-11-28T00:05:01.746Z,81.79
2018-11-28T00:06:11.878Z,81.79
2018-11-28T00:07:21.732Z,81.55
2018-11-28T00:08:31.860Z,81.51
2018-11-28T00:09:41.969Z,81.22
2018-11-28T00:10:52.087Z,81.79
2018-11-28T00:12:01.939Z,81.41
2018-11-28T00:13:12.150Z,81.51
2018-11-28T00:14:22.260Z,81.6
2018-11-28T00:15:32.123Z,81.7
2018-11-28T00:16:42.249Z,81.41
2018-11-28T00:17:52.407Z,81.88
2018-11-28T00:19:02.523Z,81.88
2018-11-28T00:20:12.622Z,81.79
2018-11-28T00:21:22.787Z,82.07
2018-11-28T00:22:32.906Z,81.98
2018-11-28T00:23:43.022Z,81.7
2018-11-28T00:24:53.156Z,81.32
2018-11-28T00:26:03.256Z,81.41
2018-11-28T00:27:13.370Z,81.6
2018-11-28T00:28:23.476Z,81.51
2018-11-28T00:29:33.607Z,81.41
2018-11-28T00:30:43.738Z,81.7
2018-11-28T00:31:53.820Z,81.51
2018-11-28T00:33:03.931Z,81.7
2018-11-28T00:34:14.030Z,81.7
2018-11-28T00:35:24.175Z,81.51
2018-11-28T00:36:34.287Z,81.41
2018-11-28T00:37:44.470Z,81.6
2018-11-28T00:38:54.365Z,81.6
2018-11-28T00:40:04.478Z,81.7
2018-11-28T00:41:14.590Z,81.7
2018-11-28T00:42:24.693Z,81.79
2018-11-28T00:43:34.821Z,81.88
2018-11-28T00:44:44.671Z,82.17
2018-11-28T00:45:54.782Z,81.88
2018-11-28T00:47:04.872Z,82.07
2018-11-28T00:48:14.987Z,82.07
2018-11-28T00:49:24.839Z,82.07
2018-11-28T00:50:34.947Z,81.79
2018-11-28T00:51:45.058Z,82.45
2018-11-28T00:52:55.152Z,82.26
2018-11-28T00:54:05.275Z,82.64
2018-11-28T00:55:15.388Z,81.88
2018-11-28T00:56:25.489Z,82.07
2018-11-28T00:57:35.600Z,82.07
2018-11-28T00:58:45.702Z,82.07
2018-11-28T00:59:55.811Z,82.54
2018-11-28T01:01:05.942Z,82.64
2018-11-28T01:02:16.046Z,82.45
2018-11-28T01:03:26.206Z,82.35
2018-11-28T01:04:36.314Z,82.17
2018-11-28T01:05:46.422Z,82.45
2018-11-28T01:06:56.522Z,82.26
2018-11-28T01:08:06.669Z,82.45
2018-11-28T01:09:16.776Z,82.17
2018-11-28T01:10:26.682Z,82.45
2018-11-28T01:11:37.020Z,82.17
2018-11-28T01:12:47.137Z,82.35
2018-11-28T01:13:57.268Z,81.98
2018-11-28T01:15:07.380Z,82.17
2018-11-28T01:16:17.503Z,81.98
2018-11-28T01:17:27.659Z,82.17
2018-11-28T01:18:37.419Z,82.17
2018-11-28T01:19:47.528Z,82.83
2018-11-28T01:20:57.430Z,82.45
2018-11-28T01:22:07.536Z,82.35
2018-11-28T01:23:17.644Z,82.64
2018-11-28T01:24:27.760Z,82.73
2018-11-28T01:25:38.096Z,82.54
2018-11-28T01:26:48.201Z,82.54
2018-11-28T01:27:58.047Z,82.54
2018-11-28T01:29:08.146Z,81.98
2018-11-28T01:30:18.248Z,82.17
2018-11-28T01:31:28.365Z,82.17
2018-11-28T01:32:38.498Z,82.26
2018-11-28T01:33:48.598Z,82.17
2018-11-28T01:34:58.755Z,82.17
2018-11-28T01:36:08.870Z,82.54
2018-11-28T01:37:18.992Z,82.07
2018-11-28T01:38:29.103Z,81.98
2018-11-28T01:39:39.229Z,81.79
2018-11-28T01:40:49.325Z,81.51
2018-11-28T01:41:59.424Z,81.51
2018-11-28T01:43:09.810Z,81.88
2018-11-28T01:44:19.960Z,81.7
2018-11-28T01:45:29.815Z,81.51
2018-11-28T01:46:39.671Z,81.88
2018-11-28T01:47:49.775Z,81.51
2018-11-28T01:48:59.874Z,81.41
2018-11-28T01:50:09.979Z,81.41
2018-11-28T01:51:20.099Z,81.51
2018-11-28T01:52:30.193Z,81.51
2018-11-28T01:53:40.302Z,81.51
2018-11-28T01:54:50.394Z,81.51
2018-11-28T01:56:00.515Z,81.6
2018-11-28T01:57:10.635Z,81.79
2018-11-28T01:58:20.750Z,81.7
2018-11-28T01:59:30.852Z,81.6
2018-11-28T02:00:40.943Z,81.51
2018-11-28T02:01:51.243Z,81.41
2018-11-28T02:03:01.337Z,81.32
2018-11-28T02:04:11.438Z,81.6
2018-11-28T02:05:21.315Z,81.51
2018-11-28T02:06:31.419Z,81.7
2018-11-28T02:07:41.542Z,81.41
2018-11-28T02:08:51.642Z,80.84
2018-11-28T02:10:01.742Z,80.94
2018-11-28T02:11:11.604Z,80.75
2018-11-28T02:12:21.695Z,80.65
2018-11-28T02:13:31.795Z,80.84
2018-11-28T02:14:41.893Z,80.84
2018-11-28T02:15:51.758Z,80.75
2018-11-28T02:17:02.089Z,80.65
2018-11-28T02:18:12.194Z,81.03
2018-11-28T02:19:22.292Z,80.84
2018-11-28T02:20:32.404Z,81.22
2018-11-28T02:21:42.738Z,81.13
2018-11-28T02:22:52.828Z,81.13
2018-11-28T02:24:02.935Z,81.13
2018-11-28T02:25:13.034Z,81.13
2018-11-28T02:26:22.886Z,81.18
2018-11-28T02:27:33.004Z,80.9
2018-11-28T02:28:43.098Z,80.9
2018-11-28T02:29:53.203Z,80.99
2018-11-28T02:31:03.368Z,80.8
2018-11-28T02:32:13.483Z,81.37
2018-11-28T02:33:23.594Z,81.56
2018-11-28T02:34:33.691Z,81.46
2018-11-28T02:35:44.029Z,81.37
2018-11-28T02:36:54.161Z,81.56
2018-11-28T02:38:04.260Z,81.46
2018-11-28T02:39:14.352Z,81.27
2018-11-28T02:40:24.473Z,81.46
2018-11-28T02:41:34.572Z,81.37
2018-11-28T02:42:44.672Z,81.56
2018-11-28T02:43:54.805Z,81.18
2018-11-28T02:45:04.924Z,81.46
2018-11-28T02:46:14.667Z,81.18
2018-11-28T02:47:24.781Z,81.18
2018-11-28T02:48:34.653Z,81.37
2018-11-28T02:49:44.803Z,81.27
2018-11-28T02:50:54.893Z,81.37
2018-11-28T02:52:04.983Z,81.37
2018-11-28T02:53:15.092Z,81.18
2018-11-28T02:54:24.946Z,81.46
2018-11-28T02:55:35.061Z,81.65
2018-11-28T02:56:45.168Z,81.56
2018-11-28T02:57:55.018Z,81.46
2018-11-28T02:59:04.847Z,81.56
2018-11-28T03:00:14.982Z,81.27
2018-11-28T03:01:25.120Z,81.46
2018-11-28T03:02:35.216Z,81.46
2018-11-28T03:03:45.318Z,81.56
2018-11-28T03:04:55.439Z,81.74
2018-11-28T03:06:05.565Z,81.56
2018-11-28T03:07:15.679Z,81.65
2018-11-28T03:08:25.777Z,81.56
2018-11-28T03:09:35.922Z,81.37
2018-11-28T03:10:46.035Z,81.37
2018-11-28T03:11:56.137Z,81.56
2018-11-28T03:13:06.253Z,81.46
2018-11-28T03:14:16.351Z,81.56
2018-11-28T03:15:26.450Z,81.56
2018-11-28T03:16:36.554Z,81.56
2018-11-28T03:17:46.429Z,81.46
2018-11-28T03:18:56.538Z,81.56
2018-11-28T03:20:06.395Z,81.27
2018-11-28T03:21:16.534Z,81.46
2018-11-28T03:22:26.636Z,81.56
2018-11-28T03:23:36.776Z,81.18
2018-11-28T03:24:46.881Z,81.18
2018-11-28T03:25:56.992Z,81.56
2018-11-28T03:27:07.103Z,81.56
2018-11-28T03:28:17.204Z,81.37
2018-11-28T03:29:27.325Z,81.84
2018-11-28T03:30:37.441Z,81.37
2018-11-28T03:31:47.559Z,81.46
2018-11-28T03:32:57.829Z,81.18
2018-11-28T03:34:08.011Z,81.27
2018-11-28T03:35:18.140Z,81.56
2018-11-28T03:36:29.692Z,81.56
2018-11-28T03:37:39.802Z,81.74
2018-11-28T03:38:49.901Z,81.74
2018-11-28T03:40:00.026Z,81.74
2018-11-28T03:41:10.141Z,81.56
2018-11-28T03:42:20.237Z,81.74
2018-11-28T03:43:30.333Z,81.56
2018-11-28T03:44:40.632Z,81.46
2018-11-28T03:45:50.722Z,81.65
2018-11-28T03:47:00.831Z,81.56
2018-11-28T03:48:10.936Z,81.56
2018-11-28T03:49:21.035Z,81.65
2018-11-28T03:50:31.147Z,81.74
2018-11-28T03:51:41.263Z,81.46
2018-11-28T03:52:51.381Z,81.46
2018-11-28T03:54:01.524Z,81.56
2018-11-28T03:55:11.653Z,81.65
2018-11-28T03:56:21.502Z,81.65
2018-11-28T03:57:31.605Z,81.84
2018-11-28T03:58:41.728Z,81.74
2018-11-28T03:59:51.828Z,81.74
2018-11-28T04:01:01.993Z,81.65
2018-11-28T04:02:11.729Z,82.03
2018-11-28T04:03:21.831Z,81.93
2018-11-28T04:04:31.944Z,81.93
2018-11-28T04:05:42.547Z,82.03
2018-11-28T04:06:52.674Z,81.93
2018-11-28T04:08:02.795Z,81.93
2018-11-28T04:09:12.892Z,81.65
2018-11-28T04:10:23.010Z,82.03
2018-11-28T04:11:33.120Z,81.84
2018-11-28T04:12:42.989Z,82.03
2018-11-28T04:13:53.117Z,81.56
2018-11-28T04:15:03.213Z,81.56
2018-11-28T04:16:13.324Z,81.93
2018-11-28T04:17:23.430Z,81.74
2018-11-28T04:18:33.530Z,81.65
2018-11-28T04:19:43.640Z,81.93
2018-11-28T04:20:53.507Z,81.46
2018-11-28T04:22:03.630Z,81.93
2018-11-28T04:23:13.798Z,81.84
2018-11-28T04:24:23.898Z,82.03
2018-11-28T04:25:33.981Z,81.56
2018-11-28T04:26:44.083Z,81.93
2018-11-28T04:27:54.194Z,81.61
2018-11-28T04:29:04.325Z,81.9
2018-11-28T04:30:14.420Z,82.18
2018-11-28T04:31:24.516Z,81.8
2018-11-28T04:32:34.827Z,82.28
2018-11-28T04:33:44.954Z,82.18
2018-11-28T04:34:55.071Z,82.18
2018-11-28T04:36:05.194Z,82.46
2018-11-28T04:37:15.352Z,82.18
2018-11-28T04:38:25.449Z,82.28
2018-11-28T04:39:35.565Z,82.09
2018-11-28T04:40:45.690Z,82.09
2018-11-28T04:41:55.801Z,82.18
2018-11-28T04:43:05.926Z,82.37
2018-11-28T04:44:16.045Z,82.09
2018-11-28T04:45:26.164Z,82.22
2018-11-28T04:46:36.278Z,82.12
2018-11-28T04:47:46.400Z,82.31
2018-11-28T04:48:56.505Z,82.03
2018-11-28T04:50:06.600Z,82.5
2018-11-28T04:51:16.708Z,81.93
2018-11-28T04:52:26.823Z,82.03
2018-11-28T04:53:36.919Z,82.31
2018-11-28T04:54:47.036Z,82.22
2018-11-28T04:55:56.521Z,82.41
2018-11-28T04:57:06.611Z,82.12
2018-11-28T04:58:16.701Z,82.41
2018-11-28T04:59:26.812Z,82.31
2018-11-28T05:00:36.911Z,82.6
2018-11-28T05:01:46.653Z,81.93
2018-11-28T05:02:56.775Z,82.22
2018-11-28T05:04:06.885Z,82.41
2018-11-28T05:05:16.986Z,82.22
2018-11-28T05:06:27.091Z,82.41
2018-11-28T05:07:37.230Z,82.41
2018-11-28T05:08:47.348Z,82.41
2018-11-28T05:09:57.458Z,82.31
2018-11-28T05:11:07.549Z,82.41
2018-11-28T05:12:17.659Z,82.12
2018-11-28T05:13:27.505Z,82.41
2018-11-28T05:14:37.632Z,82.03
2018-11-28T05:15:47.769Z,82.41
2018-11-28T05:16:57.883Z,82.31
2018-11-28T05:18:07.980Z,82.31
2018-11-28T05:19:18.099Z,82.5
2018-11-28T05:20:28.214Z,82.28
2018-11-28T05:21:38.321Z,82.31
2018-11-28T05:22:48.413Z,81.8
2018-11-28T05:23:58.519Z,82.6
2018-11-28T05:25:08.615Z,82.79
2018-11-28T05:26:18.729Z,82.41
2018-11-28T05:27:29.072Z,81.9
2018-11-28T05:28:39.219Z,82.22
2018-11-28T05:29:49.315Z,82.18
2018-11-28T05:30:59.432Z,81.8
2018-11-28T05:32:09.750Z,82.18
2018-11-28T05:33:19.862Z,82.75
2018-11-28T05:34:30.208Z,82.56
2018-11-28T05:35:40.322Z,82.56
2018-11-28T05:36:50.407Z,82.46
2018-11-28T05:37:59.896Z,82.65
2018-11-28T05:39:10.004Z,82.65
2018-11-28T05:40:20.118Z,82.56
2018-11-28T05:41:30.223Z,82.37
2018-11-28T05:42:40.329Z,82.46
2018-11-28T05:43:50.426Z,82.65
2018-11-28T05:45:00.526Z,83.03
2018-11-28T05:46:10.382Z,83.03
2018-11-28T05:47:20.702Z,83.03
2018-11-28T05:48:30.814Z,83.03
2018-11-28T05:49:40.928Z,82.65
2018-11-28T05:50:50.793Z,83.22
2018-11-28T05:52:00.891Z,83.12
2018-11-28T05:53:10.995Z,82.93
2018-11-28T05:54:21.085Z,83.4
2018-11-28T05:55:31.255Z,83.31
2018-11-28T05:56:41.377Z,83.69
2018-11-28T05:57:51.532Z,83.5
2018-11-28T05:59:01.642Z,83.69
2018-11-28T06:00:11.767Z,83.69
2018-11-28T06:01:21.890Z,83.78
2018-11-28T06:02:31.733Z,83.59
2018-11-28T06:03:41.575Z,83.59
2018-11-28T06:04:51.674Z,83.97
2018-11-28T06:06:01.788Z,83.78
2018-11-28T06:07:11.910Z,83.97
2018-11-28T06:08:22.053Z,83.88
2018-11-28T06:09:32.174Z,83.88
2018-11-28T06:10:42.272Z,83.88
2018-11-28T06:11:52.400Z,83.88
2018-11-28T06:13:02.507Z,83.59
2018-11-28T06:14:12.635Z,83.69
2018-11-28T06:15:22.756Z,83.59
2018-11-28T06:16:32.864Z,83.59
2018-11-28T06:17:42.975Z,83.78
2018-11-28T06:18:53.078Z,83.12
2018-11-28T06:20:03.233Z,83.4
2018-11-28T06:21:13.349Z,83.78
2018-11-28T06:22:23.479Z,83.78
2018-11-28T06:23:33.591Z,83.59
2018-11-28T06:24:43.449Z,83.69
2018-11-28T06:25:53.583Z,83.59
2018-11-28T06:27:03.684Z,83.4
2018-11-28T06:28:13.803Z,83.78
2018-11-28T06:29:23.926Z,83.4
2018-11-28T06:30:34.047Z,83.69
2018-11-28T06:31:44.154Z,83.69
2018-11-28T06:32:54.267Z,83.88
2018-11-28T06:34:04.374Z,83.69
2018-11-28T06:35:14.469Z,83.78
2018-11-28T06:36:24.311Z,83.88
2018-11-28T06:37:34.046Z,83.69
2018-11-28T06:38:44.142Z,83.69
2018-11-28T06:39:53.889Z,83.5
2018-11-28T06:41:03.752Z,83.88
2018-11-28T06:42:13.851Z,83.78
2018-11-28T06:43:23.956Z,83.5
2018-11-28T06:44:34.064Z,83.5
2018-11-28T06:45:44.171Z,83.78
2018-11-28T06:46:54.271Z,83.59
2018-11-28T06:48:04.390Z,83.88
2018-11-28T06:49:14.611Z,84.07
2018-11-28T06:50:24.791Z,84.45
2018-11-28T06:51:34.897Z,84.16
2018-11-28T06:52:44.756Z,84.26
2018-11-28T06:53:54.871Z,84.35
2018-11-28T06:55:05.003Z,84.73
2018-11-28T06:56:15.119Z,84.54
2018-11-28T06:57:25.211Z,84.54
2018-11-28T06:58:35.330Z,84.64
2018-11-28T06:59:45.436Z,84.54
2018-11-28T07:00:55.553Z,84.45
2018-11-28T07:02:05.665Z,84.45
2018-11-28T07:03:15.792Z,84.64
2018-11-28T07:04:25.897Z,84.54
2018-11-28T07:05:36.017Z,84.45
2018-11-28T07:06:46.124Z,84.92
2018-11-28T07:07:56.235Z,84.82
2018-11-28T07:09:06.350Z,84.82
2018-11-28T07:10:16.451Z,84.07
2018-11-28T07:11:26.298Z,84.35
2018-11-28T07:12:36.416Z,84.45
2018-11-28T07:13:46.540Z,84.45
2018-11-28T07:14:56.643Z,84.45
2018-11-28T07:16:06.740Z,84.54
2018-11-28T07:17:16.845Z,84.35
2018-11-28T07:18:26.943Z,84.68
2018-11-28T07:19:37.057Z,84.54
2018-11-28T07:20:47.227Z,84.64
2018-11-28T07:21:57.364Z,84.82
2018-11-28T07:23:08.901Z,84.64
2018-11-28T07:24:19.192Z,84.73
2018-11-28T07:25:29.315Z,84.68
2018-11-28T07:26:39.495Z,84.82
2018-11-28T07:27:49.605Z,84.58
2018-11-28T07:28:59.730Z,84.54
2018-11-28T07:30:09.850Z,84.64
2018-11-28T07:31:19.949Z,84.26
2018-11-28T07:32:30.044Z,84.58
2018-11-28T07:33:39.883Z,84.26
2018-11-28T07:34:50.011Z,84.58
2018-11-28T07:36:00.109Z,84.39
2018-11-28T07:37:09.953Z,84.68
2018-11-28T07:38:20.080Z,84.3
2018-11-28T07:39:30.198Z,84.3
2018-11-28T07:40:40.388Z,84.68
2018-11-28T07:41:50.514Z,84.96
2018-11-28T07:43:00.609Z,84.96
2018-11-28T07:44:10.709Z,84.77
2018-11-28T07:45:20.830Z,84.39
2018-11-28T07:46:30.940Z,84.3
2018-11-28T07:47:41.050Z,84.58
2018-11-28T07:48:51.155Z,84.58
2018-11-28T07:50:01.270Z,84.49
2018-11-28T07:51:11.126Z,84.58
2018-11-28T07:52:21.250Z,84.39
2018-11-28T07:53:31.354Z,84.68
2018-11-28T07:54:41.489Z,84.49
2018-11-28T07:55:51.620Z,84.49
2018-11-28T07:57:01.734Z,84.49
2018-11-28T07:58:11.853Z,84.68
2018-11-28T07:59:21.959Z,84.49
2018-11-28T08:00:32.127Z,84.39
2018-11-28T08:01:42.236Z,84.39
2018-11-28T08:02:52.358Z,84.39
2018-11-28T08:04:02.736Z,83.92
2018-11-28T08:05:12.887Z,83.73
2018-11-28T08:06:22.753Z,83.59
2018-11-28T08:07:32.893Z,83.78
2018-11-28T08:08:43.021Z,83.4
2018-11-28T08:09:53.146Z,83.68
2018-11-28T08:11:03.404Z,83.97
2018-11-28T08:12:14.555Z,83.02
2018-11-28T08:13:24.653Z,83.59
2018-11-28T08:14:34.780Z,83.59
2018-11-28T08:15:44.896Z,83.68
2018-11-28T08:16:54.812Z,83.78
2018-11-28T08:18:04.934Z,83.21
2018-11-28T08:19:15.071Z,83.21
2018-11-28T08:20:29.456Z,83.11
2018-11-28T08:21:39.594Z,83.3
2018-11-28T08:22:49.718Z,82.54
2018-11-28T08:23:59.829Z,83.3
2018-11-28T08:25:10.425Z,83.02
2018-11-28T08:26:20.852Z,82.92
2018-11-28T08:27:30.984Z,83.17
2018-11-28T08:28:41.303Z,83.02
2018-11-28T08:29:51.398Z,82.83
2018-11-28T08:31:01.538Z,82.83
2018-11-28T08:32:12.941Z,82.73
2018-11-28T08:33:23.832Z,82.73
2018-11-28T08:34:33.996Z,83.02
2018-11-28T08:35:44.130Z,82.26
2018-11-28T08:36:55.498Z,82.73
2018-11-28T08:38:05.611Z,82.54
2018-11-28T08:39:15.738Z,82.54
2018-11-28T08:40:26.040Z,82.64
2018-11-28T08:41:36.130Z,82.54
2018-11-28T08:42:46.236Z,82.45
2018-11-28T08:43:56.375Z,82.45
2018-11-28T08:45:06.483Z,81.98
2018-11-28T08:46:16.616Z,82.26
2018-11-28T08:47:26.778Z,82.35
2018-11-28T08:48:36.936Z,82.45
2018-11-28T08:49:47.066Z,82.17
2018-11-28T08:50:57.202Z,81.98
2018-11-28T08:52:07.311Z,82.07
2018-11-28T08:53:17.449Z,82.4
2018-11-28T08:54:27.596Z,82.5
2018-11-28T08:55:37.714Z,81.93
2018-11-28T08:56:47.817Z,81.83
2018-11-28T08:57:57.926Z,81.93
2018-11-28T08:59:08.086Z,81.45
2018-11-28T09:00:18.193Z,81.83
2018-11-28T09:01:28.338Z,81.17
2018-11-28T09:02:38.469Z,81.36
2018-11-28T09:03:48.687Z,81.36
2018-11-28T09:04:58.813Z,81.36
2018-11-28T09:06:08.927Z,81.36
2018-11-28T09:07:19.034Z,81.45
2018-11-28T09:08:29.128Z,81.55
2018-11-28T09:09:39.251Z,81.36
2018-11-28T09:10:49.375Z,80.98
2018-11-28T09:11:59.490Z,80.6
2018-11-28T09:13:09.618Z,80.79
2018-11-28T09:14:19.790Z,80.88
2018-11-28T09:15:31.239Z,81.02
2018-11-28T09:16:41.718Z,80.83
2018-11-28T09:17:51.869Z,80.74
2018-11-28T09:19:02.101Z,81.02
2018-11-28T09:20:12.221Z,80.45
2018-11-28T09:21:22.328Z,80.55
2018-11-28T09:22:32.449Z,80.55
2018-11-28T09:23:42.570Z,80.07
2018-11-28T09:24:52.711Z,80.36
2018-11-28T09:26:02.847Z,79.6
2018-11-28T09:27:12.961Z,79.79
2018-11-28T09:28:23.079Z,79.88
2018-11-28T09:29:33.215Z,79.79
2018-11-28T09:30:43.570Z,79.69
2018-11-28T09:31:53.680Z,79.64
2018-11-28T09:33:03.807Z,79.55
2018-11-28T09:34:14.160Z,80.11
2018-11-28T09:35:24.286Z,79.64
2018-11-28T09:36:34.400Z,79.64
2018-11-28T09:37:47.884Z,79.3
2018-11-28T09:38:58.034Z,78.54
2018-11-28T09:40:08.330Z,78.39
2018-11-28T09:41:18.468Z,78.3
2018-11-28T09:42:28.597Z,77.39
2018-11-28T09:43:38.712Z,77.2
2018-11-28T09:44:48.854Z,77.11
2018-11-28T09:45:59.066Z,76.48
2018-11-28T09:47:09.209Z,75.72
2018-11-28T09:48:19.324Z,74.81
2018-11-28T09:49:29.431Z,74.43
2018-11-28T09:50:39.553Z,73.76
2018-11-28T09:51:49.682Z,72.91
2018-11-28T09:52:59.803Z,72.28
2018-11-28T09:54:10.030Z,71.62
2018-11-28T09:55:20.165Z,71.33
2018-11-28T09:56:30.292Z,70.57
2018-11-28T09:57:40.430Z,70.95
2018-11-28T09:58:50.603Z,70.57
2018-11-28T10:00:00.741Z,70.32
2018-11-28T10:01:10.908Z,68.99
2018-11-28T10:02:21.075Z,68.52
2018-11-28T10:03:31.192Z,68.04
2018-11-28T10:04:41.300Z,67.98
2018-11-28T10:05:51.438Z,67.69
2018-11-28T10:07:01.563Z,67.5
2018-11-28T10:08:11.677Z,67.25
2018-11-28T10:09:21.849Z,66.59
2018-11-28T10:10:31.526Z,66.11
2018-11-28T10:11:41.646Z,65.25
2018-11-28T10:12:51.759Z,65.16
2018-11-28T10:14:01.876Z,64.69
2018-11-28T10:15:11.998Z,64.4
2018-11-28T10:16:22.144Z,64.59
2018-11-28T10:17:32.288Z,64.02
2018-11-28T10:18:42.570Z,63.45
2018-11-28T10:19:52.696Z,63.54
2018-11-28T10:21:02.798Z,63.26
2018-11-28T10:22:12.910Z,63.48
2018-11-28T10:23:23.043Z,62.91
2018-11-28T10:24:34.390Z,62.62
2018-11-28T10:25:44.587Z,62.43
2018-11-28T10:26:54.959Z,61.77
2018-11-28T10:28:05.077Z,61.38
2018-11-28T10:29:15.416Z,61.19
2018-11-28T10:30:25.296Z,61.38
2018-11-28T10:31:37.000Z,60.44
2018-11-28T10:32:46.758Z,60.91
2018-11-28T10:33:56.921Z,61.1
2018-11-28T10:35:07.061Z,60.82
2018-11-28T10:36:17.227Z,60.44
2018-11-28T10:37:27.359Z,59.42
2018-11-28T10:38:37.476Z,59.61
2018-11-28T10:39:47.346Z,58.37
2018-11-28T10:40:57.265Z,58.53
2018-11-28T10:42:07.386Z,58.91
2018-11-28T10:43:17.525Z,58.81
2018-11-28T10:44:27.677Z,59.29
2018-11-28T10:45:37.805Z,59.03
2018-11-28T10:46:47.924Z,58.84
2018-11-28T10:47:58.102Z,58.75
2018-11-28T10:49:08.235Z,58.47
2018-11-28T10:50:18.393Z,57.99
2018-11-28T10:51:28.625Z,57.42
2018-11-28T10:52:38.491Z,57.51
2018-11-28T10:53:48.613Z,56.85
2018-11-28T10:54:59.223Z,56.65
2018-11-28T10:56:09.539Z,56.24
2018-11-28T10:57:19.655Z,56.92
2018-11-28T10:58:30.173Z,56.63
2018-11-28T10:59:40.310Z,57.01
2018-11-28T11:00:50.450Z,56.18
2018-11-28T11:02:00.620Z,55.51
2018-11-28T11:03:10.515Z,56.05
2018-11-28T11:04:20.648Z,55.87
2018-11-28T11:05:30.908Z,55.68
2018-11-28T11:06:41.257Z,55.29
2018-11-28T11:07:51.379Z,55.58
2018-11-28T11:09:01.516Z,55.01
2018-11-28T11:10:11.645Z,54.82
2018-11-28T11:11:21.791Z,55.01
2018-11-28T11:12:31.950Z,55.01
2018-11-28T11:13:42.127Z,54.25
2018-11-28T11:14:52.284Z,54.53
2018-11-28T11:16:02.404Z,54.69
2018-11-28T11:17:12.776Z,55.17
2018-11-28T11:18:22.913Z,54.69
2018-11-28T11:19:33.733Z,54.79
2018-11-28T11:20:43.887Z,54.69
2018-11-28T11:21:54.028Z,54.89
2018-11-28T11:23:04.242Z,55.46
2018-11-28T11:24:14.664Z,55.65
2018-11-28T11:25:24.801Z,55.55
2018-11-28T11:26:34.944Z,55.65
2018-11-28T11:27:45.097Z,55.55
2018-11-28T11:28:55.221Z,55.93
2018-11-28T11:30:05.391Z,55.93
2018-11-28T11:31:15.541Z,55.55
2018-11-28T11:32:25.661Z,55.17
2018-11-28T11:33:35.282Z,55.17
2018-11-28T11:34:45.426Z,54.6
2018-11-28T11:35:55.583Z,54.03
2018-11-28T11:37:05.698Z,54.32
2018-11-28T11:38:15.841Z,54.69
2018-11-28T11:39:26.084Z,55.17
2018-11-28T11:40:36.231Z,54.89
2018-11-28T11:41:46.362Z,55.08
2018-11-28T11:42:56.557Z,55.46
2018-11-28T11:44:06.715Z,55.17
2018-11-28T11:45:16.579Z,54.79
2018-11-28T11:46:26.767Z,54.79
2018-11-28T11:47:36.902Z,54.86
2018-11-28T11:48:47.049Z,54.77
2018-11-28T11:49:56.931Z,55.15
2018-11-28T11:51:07.070Z,55.71
2018-11-28T11:52:17.259Z,55.62
2018-11-28T11:53:27.391Z,56.29
2018-11-28T11:54:37.525Z,56.45
2018-11-28T11:55:47.654Z,56.35
2018-11-28T11:56:57.800Z,56.83
2018-11-28T11:58:08.073Z,56.16
2018-11-28T11:59:18.205Z,56.16
2018-11-28T12:00:28.356Z,56.63
2018-11-28T12:01:38.475Z,56.63
2018-11-28T12:02:48.642Z,57.37
2018-11-28T12:03:58.505Z,57.37
2018-11-28T12:05:08.689Z,57.37
2018-11-28T12:06:18.984Z,57.56
2018-11-28T12:07:29.100Z,57.65
2018-11-28T12:08:39.189Z,58.13
2018-11-28T12:09:49.328Z,58.22
2018-11-28T12:10:59.457Z,58.89
2018-11-28T12:12:09.579Z,58.61
2018-11-28T12:13:19.737Z,58.86
2018-11-28T12:14:29.853Z,59.33
2018-11-28T12:15:39.983Z,59.62
2018-11-28T12:16:50.126Z,59.62
2018-11-28T12:18:00.243Z,59.62
2018-11-28T12:19:09.823Z,60.19
2018-11-28T12:20:19.965Z,60.44
2018-11-28T12:21:29.742Z,60.35
2018-11-28T12:22:39.845Z,60.92
2018-11-28T12:23:49.982Z,61.01
2018-11-28T12:25:00.102Z,61.39
2018-11-28T12:26:10.227Z,61.58
2018-11-28T12:27:20.361Z,62.4
2018-11-28T12:28:30.490Z,62.4
2018-11-28T12:29:40.625Z,62.59
2018-11-28T12:30:51.409Z,63.07
2018-11-28T12:32:01.539Z,63.26
2018-11-28T12:33:12.704Z,63.26
2018-11-28T12:34:23.124Z,63.64
2018-11-28T12:35:33.247Z,63.35
2018-11-28T12:36:43.360Z,63.45
2018-11-28T12:37:53.466Z,63.35
2018-11-28T12:39:03.592Z,63.35
2018-11-28T12:40:13.725Z,63.35
2018-11-28T12:41:23.860Z,63.17
2018-11-28T12:42:34.007Z,64.11
2018-11-28T12:43:44.136Z,63.82
2018-11-28T12:44:54.259Z,63.64
2018-11-28T12:46:04.390Z,64.2
2018-11-28T12:47:14.523Z,64.01
2018-11-28T12:48:24.432Z,64.2
2018-11-28T12:49:34.554Z,64.11
2018-11-28T12:50:44.654Z,64.49
2018-11-28T12:51:54.800Z,64.01
2018-11-28T12:53:04.704Z,63.82
2018-11-28T12:54:14.823Z,64.01
2018-11-28T12:55:25.134Z,64.59
2018-11-28T12:56:35.383Z,64.4
2018-11-28T12:57:45.529Z,64.49
2018-11-28T12:58:55.673Z,64.49
2018-11-28T13:00:05.801Z,64.78
2018-11-28T13:01:15.931Z,64.3
2018-11-28T13:02:26.070Z,64.11
2018-11-28T13:03:35.850Z,64.2
2018-11-28T13:04:45.975Z,63.92
2018-11-28T13:05:56.114Z,63.64
2018-11-28T13:07:06.220Z,64.01
2018-11-28T13:08:16.114Z,63.82
2018-11-28T13:09:26.243Z,63.92
2018-11-28T13:10:36.630Z,63.82
2018-11-28T13:11:46.776Z,63.35
2018-11-28T13:12:57.188Z,63.45
2018-11-28T13:14:07.377Z,63.64
2018-11-28T13:15:17.527Z,63.32
2018-11-28T13:16:27.656Z,63.6
2018-11-28T13:17:37.789Z,63.79
2018-11-28T13:18:47.912Z,63.89
2018-11-28T13:20:01.474Z,63.89
2018-11-28T13:21:11.925Z,63.98
2018-11-28T13:22:22.059Z,63.89
2018-11-28T13:23:32.184Z,64.17
2018-11-28T13:24:42.572Z,64.08
2018-11-28T13:25:52.697Z,64.27
2018-11-28T13:27:03.046Z,64.74
2018-11-28T13:28:12.941Z,64.46
2018-11-28T13:29:23.070Z,64.55
2018-11-28T13:30:33.192Z,65.03
2018-11-28T13:31:43.299Z,64.93
2018-11-28T13:32:53.430Z,64.84
2018-11-28T13:34:03.557Z,65.31
2018-11-28T13:35:13.702Z,65.31
2018-11-28T13:36:25.117Z,65.41
2018-11-28T13:37:35.255Z,65.41
2018-11-28T13:38:45.393Z,65.41
2018-11-28T13:39:56.027Z,65.22
2018-11-28T13:41:06.136Z,65.12
2018-11-28T13:42:16.270Z,65.5
2018-11-28T13:43:26.404Z,65.03
2018-11-28T13:44:36.305Z,65.41
2018-11-28T13:45:46.466Z,65.5
2018-11-28T13:46:56.588Z,65.12
2018-11-28T13:48:06.728Z,65.31
2018-11-28T13:49:16.874Z,65.41
2018-11-28T13:50:27.164Z,65.12
2018-11-28T13:51:37.365Z,65.03
2018-11-28T13:52:47.491Z,65.41
2018-11-28T13:53:57.604Z,65.97
2018-11-28T13:55:44.405Z,65.97
